Time;durP1;ratioP1;P1;durP2;ratioP2;P2;SDS_P1;SDS_P2;PMS_P1;PMS_P2;Temp;Humidity;BMP_temperature;BMP_pressure;BME280_temperature;BME280_humidity;BME280_pressure;Samples;Min_cycle;Max_cycle;Signal;HPM_P1;HPM_P2
2021/09/05 00:02:12;;;;;;;26.23;13.88;;;14.00;88.50;;;;;;5074241;28;20404;-78
2021/09/05 00:04:38;;;;;;;26.40;13.27;;;14.00;88.40;;;;;;5073206;28;20376;-78
2021/09/05 00:07:03;;;;;;;23.43;13.13;;;13.90;88.50;;;;;;5074518;28;20788;-78
2021/09/05 00:09:29;;;;;;;25.63;13.02;;;14.00;88.30;;;;;;5074192;28;20418;-78
2021/09/05 00:11:54;;;;;;;27.58;13.40;;;13.90;88.50;;;;;;5073832;28;20442;-78
2021/09/05 00:14:20;;;;;;;24.67;13.13;;;13.90;88.50;;;;;;5056159;28;20387;-78
2021/09/05 00:16:46;;;;;;;27.23;13.27;;;13.90;88.30;;;;;;5074287;28;20412;-78
2021/09/05 00:19:11;;;;;;;30.63;13.40;;;13.90;88.80;;;;;;5074277;28;20377;-78
2021/09/05 00:21:37;;;;;;;23.30;13.67;;;13.90;88.90;;;;;;5073947;28;20376;-78
2021/09/05 00:24:02;;;;;;;23.10;12.67;;;13.70;89.00;;;;;;5073852;28;20406;-78
2021/09/05 00:26:31;;;;;;;23.15;13.18;;;13.90;88.80;;;;;;5074243;28;20819;-78
2021/09/05 00:28:56;;;;;;;23.75;13.20;;;13.80;88.90;;;;;;5073845;28;20380;-78
2021/09/05 00:31:22;;;;;;;23.60;13.35;;;13.90;88.80;;;;;;5073818;28;20384;-78
2021/09/05 00:33:47;;;;;;;26.47;13.63;;;13.90;88.70;;;;;;5073945;28;20387;-78
2021/09/05 00:36:13;;;;;;;33.30;14.50;;;13.90;88.50;;;;;;5073740;28;20802;-78
2021/09/05 00:38:39;;;;;;;26.27;13.87;;;13.80;88.80;;;;;;5073383;28;20859;-78
2021/09/05 00:41:04;;;;;;;25.73;14.03;;;13.80;88.70;;;;;;5073536;28;20384;-78
2021/09/05 00:43:30;;;;;;;22.30;12.73;;;13.80;88.80;;;;;;5073590;28;20387;-78
2021/09/05 00:45:55;;;;;;;26.48;13.38;;;13.80;88.80;;;;;;5055523;28;20391;-78
2021/09/05 00:48:21;;;;;;;27.73;13.53;;;13.80;88.60;;;;;;5073743;28;20434;-78
2021/09/05 00:50:46;;;;;;;24.77;13.17;;;13.80;88.60;;;;;;5055464;28;20801;-78
2021/09/05 00:53:12;;;;;;;28.55;13.85;;;13.80;88.70;;;;;;5073261;28;20395;-78
2021/09/05 00:55:38;;;;;;;24.05;12.80;;;13.70;88.60;;;;;;5072973;28;20442;-78
2021/09/05 00:58:11;;;;;;;26.95;14.45;;;13.70;88.60;;;;;;5073289;28;20380;-78
2021/09/05 01:00:37;;;;;;;23.40;13.05;;;13.80;88.50;;;;;;5073208;28;20428;-78
2021/09/05 01:03:03;;;;;;;27.23;13.85;;;13.70;88.50;;;;;;5073183;28;20860;-78
2021/09/05 01:05:30;;;;;;;29.38;14.35;;;13.60;88.80;;;;;;5072769;28;20885;-78
2021/09/05 01:07:56;;;;;;;27.02;12.73;;;13.50;88.90;;;;;;5055099;28;20533;-78
2021/09/05 01:10:23;;;;;;;28.03;13.77;;;13.70;88.70;;;;;;5073017;28;20455;-78
2021/09/05 01:12:49;;;;;;;26.42;13.60;;;13.60;88.50;;;;;;5054990;28;20414;-78
2021/09/05 01:15:14;;;;;;;26.88;14.13;;;13.60;88.50;;;;;;5072721;28;20853;-78
2021/09/05 01:17:40;;;;;;;24.53;13.00;;;13.50;88.60;;;;;;5072920;28;20383;-78
2021/09/05 01:20:08;;;;;;;26.13;13.40;;;13.50;88.80;;;;;;5054773;28;20480;-78
2021/09/05 01:22:34;;;;;;;26.60;13.75;;;13.50;88.90;;;;;;5073091;28;20802;-78
2021/09/05 01:24:59;;;;;;;22.85;13.35;;;13.40;88.90;;;;;;5072756;28;20402;-78
2021/09/05 01:27:25;;;;;;;30.43;14.50;;;13.50;88.90;;;;;;5072910;28;20922;-78
2021/09/05 01:29:51;;;;;;;28.77;13.93;;;13.40;88.80;;;;;;5054663;28;20396;-78
2021/09/05 01:32:17;;;;;;;27.10;14.05;;;13.40;88.80;;;;;;5072528;28;20376;-77
2021/09/05 01:34:43;;;;;;;25.73;13.45;;;13.40;88.80;;;;;;5054514;28;20856;-77
2021/09/05 01:37:08;;;;;;;25.10;12.77;;;13.40;88.90;;;;;;5072133;28;20475;-77
2021/09/05 01:39:34;;;;;;;25.52;13.50;;;13.50;88.80;;;;;;5072437;28;20383;-78
2021/09/05 01:42:00;;;;;;;25.47;13.97;;;13.40;88.80;;;;;;5072343;28;20375;-77
2021/09/05 01:44:26;;;;;;;23.97;13.27;;;13.40;88.80;;;;;;5072275;28;20380;-78
2021/09/05 01:46:51;;;;;;;25.00;13.88;;;13.40;88.90;;;;;;5054271;28;20392;-78
2021/09/05 01:49:17;;;;;;;23.30;13.23;;;13.40;88.90;;;;;;5072230;28;20861;-78
2021/09/05 01:51:43;;;;;;;28.00;13.60;;;13.40;88.80;;;;;;5072281;28;20380;-77
2021/09/05 01:54:08;;;;;;;24.88;13.25;;;13.40;88.90;;;;;;5072091;28;20463;-77
2021/09/05 01:56:35;;;;;;;28.40;13.52;;;13.40;88.90;;;;;;5072116;28;20423;-78
2021/09/05 01:59:01;;;;;;;22.33;12.82;;;13.40;88.70;;;;;;5072088;28;20387;-78
2021/09/05 02:01:29;;;;;;;29.00;14.50;;;13.40;88.80;;;;;;5072021;28;20382;-78
2021/09/05 02:03:55;;;;;;;28.30;13.23;;;13.40;88.70;;;;;;5053990;28;20388;-78
2021/09/05 02:06:21;;;;;;;25.30;13.23;;;13.30;88.80;;;;;;5053428;28;20387;-78
2021/09/05 02:08:47;;;;;;;26.10;14.32;;;13.30;88.70;;;;;;5071591;28;20437;-77
2021/09/05 02:11:13;;;;;;;25.08;12.55;;;13.30;88.70;;;;;;5072144;28;20391;-78
2021/09/05 02:13:39;;;;;;;27.23;13.13;;;13.30;88.90;;;;;;5071671;28;20396;-78
2021/09/05 02:16:05;;;;;;;25.98;13.50;;;13.30;88.90;;;;;;5071784;28;20407;-77
2021/09/05 02:18:31;;;;;;;26.05;13.60;;;13.30;89.00;;;;;;5071989;28;20384;-78
2021/09/05 02:20:57;;;;;;;27.17;14.10;;;13.30;88.90;;;;;;5071760;28;20455;-77
2021/09/05 02:23:22;;;;;;;24.25;13.30;;;13.20;88.80;;;;;;5071685;28;20710;-78
2021/09/05 02:25:48;;;;;;;24.73;13.60;;;13.30;88.80;;;;;;5053663;28;20748;-78
2021/09/05 02:28:13;;;;;;;25.15;13.00;;;13.20;88.90;;;;;;5071580;28;20462;-78
2021/09/05 02:30:39;;;;;;;25.77;13.70;;;13.20;88.90;;;;;;5071519;28;20382;-78
2021/09/05 02:33:05;;;;;;;27.17;13.17;;;13.20;88.80;;;;;;5071578;28;20463;-78
2021/09/05 02:35:31;;;;;;;24.00;13.43;;;13.20;88.70;;;;;;5071392;28;20808;-78
2021/09/05 02:37:56;;;;;;;26.50;13.30;;;13.10;88.80;;;;;;5053443;28;20392;-78
2021/09/05 02:40:22;;;;;;;25.70;14.00;;;13.20;88.70;;;;;;5071448;28;20394;-78
2021/09/05 02:42:48;;;;;;;28.02;13.95;;;13.10;88.70;;;;;;5071486;28;20383;-78
2021/09/05 02:45:14;;;;;;;25.30;13.35;;;13.10;88.80;;;;;;5053363;28;20771;-77
2021/09/05 02:47:39;;;;;;;31.67;14.48;;;13.10;89.00;;;;;;5071693;28;20513;-77
2021/09/05 02:50:06;;;;;;;25.98;14.07;;;13.10;88.80;;;;;;5053245;28;20436;-78
2021/09/05 02:52:32;;;;;;;28.33;14.13;;;13.00;88.90;;;;;;5071036;28;20372;-78
2021/09/05 02:54:57;;;;;;;28.33;13.77;;;13.00;88.90;;;;;;5071254;28;20378;-77
2021/09/05 02:57:23;;;;;;;26.47;13.33;;;13.00;89.00;;;;;;5071350;28;20507;-78
2021/09/05 02:59:48;;;;;;;26.13;13.93;;;13.00;88.80;;;;;;5071295;28;20756;-78
2021/09/05 03:02:14;;;;;;;28.33;14.30;;;13.00;88.70;;;;;;5071207;28;20375;-78
2021/09/05 03:04:39;;;;;;;23.97;13.17;;;13.00;88.90;;;;;;5071187;28;20371;-77
2021/09/05 03:07:05;;;;;;;24.67;14.23;;;12.90;89.00;;;;;;5053318;28;20474;-77
2021/09/05 03:09:31;;;;;;;28.27;14.18;;;13.00;88.90;;;;;;5071150;28;20402;-77
2021/09/05 03:11:56;;;;;;;23.33;13.27;;;12.90;88.90;;;;;;5053151;28;20434;-78
2021/09/05 03:14:22;;;;;;;27.73;14.10;;;12.90;88.90;;;;;;5053348;28;20396;-78
2021/09/05 03:16:47;;;;;;;27.63;13.63;;;12.90;89.10;;;;;;5053127;28;20563;-78
2021/09/05 03:19:13;;;;;;;26.95;14.48;;;12.90;88.90;;;;;;5056885;28;20384;-77
2021/09/05 03:21:39;;;;;;;23.50;13.27;;;12.90;89.00;;;;;;5057067;28;20387;-77
2021/09/05 03:24:05;;;;;;;28.23;14.48;;;12.90;89.20;;;;;;5057039;28;20436;-77
2021/09/05 03:26:35;;;;;;;24.20;13.48;;;12.90;89.20;;;;;;5075018;28;20388;-78
2021/09/05 03:29:02;;;;;;;27.63;14.23;;;12.80;89.30;;;;;;5056846;28;20380;-77
2021/09/05 03:31:27;;;;;;;24.15;13.13;;;12.80;89.30;;;;;;5056944;28;20517;-77
2021/09/05 03:33:53;;;;;;;28.40;13.53;;;12.80;89.30;;;;;;5057108;28;20486;-78
2021/09/05 03:36:18;;;;;;;25.67;13.33;;;12.80;89.20;;;;;;5074720;28;20403;-78
2021/09/05 03:38:44;;;;;;;26.13;14.25;;;12.70;89.20;;;;;;5074765;28;20423;-77
2021/09/05 03:41:09;;;;;;;25.92;14.45;;;12.70;89.10;;;;;;5057070;28;20787;-77
2021/09/05 03:43:35;;;;;;;28.57;14.60;;;12.70;89.10;;;;;;5056625;28;20388;-78
2021/09/05 03:46:00;;;;;;;27.00;13.93;;;12.70;89.20;;;;;;5074510;28;20741;-77
2021/09/05 03:48:26;;;;;;;29.45;14.88;;;12.60;89.30;;;;;;5074234;28;20392;-77
2021/09/05 03:50:51;;;;;;;28.47;14.00;;;12.60;89.30;;;;;;5056511;28;20388;-78
2021/09/05 03:53:17;;;;;;;29.80;15.37;;;12.60;89.50;;;;;;5074456;28;20449;-78
2021/09/05 03:55:42;;;;;;;27.23;14.18;;;12.60;89.20;;;;;;5074220;28;20795;-77
2021/09/05 03:58:08;;;;;;;25.33;13.37;;;12.70;89.30;;;;;;5056443;28;20396;-77
2021/09/05 04:00:34;;;;;;;27.07;13.93;;;12.70;89.10;;;;;;5056348;28;20388;-77
2021/09/05 04:02:59;;;;;;;25.58;14.05;;;12.60;89.20;;;;;;5056359;28;20379;-77
2021/09/05 04:05:25;;;;;;;27.70;13.82;;;12.60;89.10;;;;;;5074487;28;20390;-77
2021/09/05 04:08:12;;;;;;;26.73;13.98;;;12.60;89.00;;;;;;5074157;28;20380;-77
2021/09/05 04:10:38;;;;;;;28.58;14.75;;;12.60;89.10;;;;;;5074190;28;20380;-77
2021/09/05 04:13:04;;;;;;;27.05;14.73;;;12.50;89.20;;;;;;5073852;28;20852;-77
2021/09/05 04:15:30;;;;;;;26.60;14.45;;;12.60;89.10;;;;;;5055938;28;20376;-77
2021/09/05 04:17:56;;;;;;;25.57;14.43;;;12.50;89.00;;;;;;5056374;28;20388;-77
2021/09/05 04:20:22;;;;;;;26.60;14.80;;;12.50;88.90;;;;;;5073997;28;20380;-77
2021/09/05 04:22:48;;;;;;;30.05;14.70;;;12.40;89.00;;;;;;5055865;28;20376;-77
2021/09/05 04:25:14;;;;;;;31.45;15.23;;;12.50;89.00;;;;;;5056111;28;20444;-77
2021/09/05 04:27:40;;;;;;;28.52;14.30;;;12.40;89.20;;;;;;5073997;28;20470;-77
2021/09/05 04:30:07;;;;;;;26.58;14.07;;;12.40;89.20;;;;;;5055390;28;20391;-77
2021/09/05 04:32:34;;;;;;;30.47;15.60;;;12.40;89.30;;;;;;5055694;28;20391;-77
2021/09/05 04:35:00;;;;;;;29.25;15.48;;;12.40;89.20;;;;;;5055665;28;20835;-77
2021/09/05 04:37:26;;;;;;;27.63;14.68;;;12.40;89.30;;;;;;5073635;28;20414;-77
2021/09/05 04:39:52;;;;;;;31.15;15.32;;;12.50;89.10;;;;;;5055275;28;20384;-77
2021/09/05 04:42:18;;;;;;;31.40;14.88;;;12.40;89.10;;;;;;5073488;28;20384;-78
2021/09/05 04:44:44;;;;;;;28.65;14.77;;;12.40;89.10;;;;;;5073503;28;20449;-77
2021/09/05 04:47:09;;;;;;;29.90;15.23;;;12.40;89.20;;;;;;5073552;28;20388;-77
2021/09/05 04:49:35;;;;;;;31.30;14.87;;;12.40;89.20;;;;;;5072632;28;20521;-78
2021/09/05 04:52:02;;;;;;;28.63;14.98;;;12.40;89.20;;;;;;5055157;28;20897;-77
2021/09/05 04:54:28;;;;;;;28.38;15.02;;;12.40;89.20;;;;;;5073399;28;20380;-77
2021/09/05 04:56:54;;;;;;;31.08;14.55;;;12.30;89.20;;;;;;5055746;28;20416;-77
2021/09/05 04:59:19;;;;;;;30.20;15.40;;;12.30;89.30;;;;;;5055224;28;20384;-78
2021/09/05 05:01:46;;;;;;;28.00;15.17;;;12.30;89.30;;;;;;5073150;28;20402;-77
2021/09/05 05:04:11;;;;;;;32.42;16.23;;;12.30;89.20;;;;;;5054772;28;20434;-77
2021/09/05 05:06:41;;;;;;;38.33;16.83;;;12.30;89.10;;;;;;5073126;28;20860;-78
2021/09/05 05:09:12;;;;;;;39.85;18.58;;;12.20;89.70;;;;;;5073062;28;20445;-77
2021/09/05 05:11:43;;;;;;;36.58;18.35;;;12.10;90.20;;;;;;5054756;28;20430;-77
2021/09/05 05:14:09;;;;;;;34.88;16.27;;;12.00;90.40;;;;;;5073245;28;20380;-77
2021/09/05 05:16:34;;;;;;;31.35;16.00;;;12.10;90.30;;;;;;5072882;28;20486;-77
2021/09/05 05:19:01;;;;;;;31.13;16.35;;;12.20;90.00;;;;;;5072563;28;20471;-77
2021/09/05 05:21:27;;;;;;;31.85;16.38;;;12.20;89.80;;;;;;5072785;28;20368;-78
2021/09/05 05:23:53;;;;;;;33.70;16.77;;;12.20;89.80;;;;;;5072697;28;20380;-77
2021/09/05 05:26:19;;;;;;;31.80;16.23;;;12.20;89.60;;;;;;5072537;28;20380;-77
2021/09/05 05:28:44;;;;;;;33.60;15.93;;;12.20;90.00;;;;;;5072622;28;20391;-77
2021/09/05 05:31:10;;;;;;;25.90;14.85;;;12.20;89.80;;;;;;5072622;28;20661;-78
2021/09/05 05:33:35;;;;;;;32.90;16.90;;;12.30;89.70;;;;;;5054491;28;20417;-77
2021/09/05 05:36:01;;;;;;;32.97;16.23;;;12.30;89.50;;;;;;5054500;28;20498;-77
2021/09/05 05:38:27;;;;;;;34.93;16.23;;;12.20;89.70;;;;;;5071874;28;20987;-77
2021/09/05 05:40:52;;;;;;;29.77;15.35;;;12.30;89.90;;;;;;5071058;28;20863;-77
2021/09/05 05:43:18;;;;;;;33.22;16.27;;;12.30;89.70;;;;;;5071933;28;20380;-78
2021/09/05 05:45:44;;;;;;;30.50;15.77;;;12.30;89.70;;;;;;5070799;28;20399;-77
2021/09/05 05:48:11;;;;;;;31.90;14.98;;;12.20;89.60;;;;;;5054096;28;20479;-77
2021/09/05 05:50:37;;;;;;;30.20;15.73;;;12.30;89.70;;;;;;5069765;28;20451;-77
2021/09/05 05:53:02;;;;;;;29.90;15.57;;;12.30;89.90;;;;;;5070911;28;20517;-77
2021/09/05 05:55:28;;;;;;;36.60;17.58;;;12.30;89.80;;;;;;5071972;28;20388;-77
2021/09/05 05:57:53;;;;;;;31.30;15.20;;;12.20;90.30;;;;;;5071665;28;20864;-78
2021/09/05 06:00:24;;;;;;;32.53;16.67;;;12.20;90.40;;;;;;5054024;28;20376;-77
2021/09/05 06:02:50;;;;;;;31.40;16.48;;;12.20;90.40;;;;;;5072075;28;20437;-77
2021/09/05 06:05:16;;;;;;;32.65;16.45;;;12.30;90.30;;;;;;5072256;28;20384;-77
2021/09/05 06:07:41;;;;;;;32.65;16.35;;;12.30;90.10;;;;;;5054018;28;20380;-77
2021/09/05 06:10:07;;;;;;;28.80;16.00;;;12.30;90.10;;;;;;5071815;28;20387;-78
2021/09/05 06:12:32;;;;;;;38.43;17.37;;;12.30;90.10;;;;;;5072012;28;20411;-77
2021/09/05 06:14:58;;;;;;;35.97;18.77;;;12.30;90.30;;;;;;5053711;28;20388;-78
2021/09/05 06:17:24;;;;;;;36.55;17.95;;;12.20;90.80;;;;;;5071586;28;20408;-77
2021/09/05 06:19:49;;;;;;;40.47;18.73;;;12.10;91.10;;;;;;5071722;28;20457;-82
2021/09/05 06:22:15;;;;;;;37.73;18.83;;;12.30;90.80;;;;;;5053759;28;20706;-82
2021/09/05 06:24:40;;;;;;;38.77;18.47;;;12.20;91.00;;;;;;5071586;28;20918;-82
2021/09/05 06:27:06;;;;;;;33.80;17.45;;;12.20;91.30;;;;;;5071589;28;20465;-82
2021/09/05 06:29:32;;;;;;;35.38;17.48;;;12.30;91.20;;;;;;5053643;28;20431;-82
2021/09/05 06:31:58;;;;;;;37.15;18.15;;;12.30;91.00;;;;;;5053489;28;20896;-82
2021/09/05 06:34:23;;;;;;;39.60;19.03;;;12.30;91.30;;;;;;5053645;28;20380;-82
2021/09/05 06:36:49;;;;;;;39.33;18.90;;;12.20;91.90;;;;;;5071432;28;20564;-80
2021/09/05 06:39:14;;;;;;;45.88;20.02;;;12.10;92.30;;;;;;5071518;28;20372;-80
2021/09/05 06:41:40;;;;;;;39.60;19.27;;;12.20;92.30;;;;;;5071667;28;20379;-80
2021/09/05 06:44:05;;;;;;;42.03;18.93;;;12.30;92.10;;;;;;5071484;28;20388;-80
2021/09/05 06:46:31;;;;;;;41.15;19.13;;;12.30;92.20;;;;;;5071414;28;20384;-81
2021/09/05 06:48:56;;;;;;;39.77;18.50;;;12.40;92.30;;;;;;5071001;28;20396;-80
2021/09/05 06:51:22;;;;;;;41.57;19.70;;;12.40;92.10;;;;;;5071194;28;20376;-80
2021/09/05 06:53:48;;;;;;;37.53;18.08;;;12.50;91.90;;;;;;5053282;28;20861;-80
2021/09/05 06:56:13;;;;;;;36.07;18.17;;;12.60;92.00;;;;;;5071210;28;20876;-80
2021/09/05 06:58:39;;;;;;;37.60;18.57;;;12.60;91.90;;;;;;5071231;28;20472;-80
2021/09/05 07:01:04;;;;;;;38.10;18.93;;;12.60;92.00;;;;;;5071220;28;20391;-80
2021/09/05 07:03:30;;;;;;;35.80;16.77;;;12.70;91.90;;;;;;5053213;28;20808;-80
2021/09/05 07:05:56;;;;;;;37.42;18.17;;;12.70;91.60;;;;;;5071067;28;20423;-80
2021/09/05 07:08:21;;;;;;;38.47;18.02;;;12.70;91.70;;;;;;5071426;28;20383;-80
2021/09/05 07:10:47;;;;;;;38.97;17.05;;;12.80;91.70;;;;;;5053175;28;20432;-80
2021/09/05 07:13:13;;;;;;;32.17;16.33;;;12.80;91.70;;;;;;5053111;28;20551;-80
2021/09/05 07:15:38;;;;;;;39.57;18.10;;;12.90;91.40;;;;;;5053100;28;20387;-80
2021/09/05 07:18:04;;;;;;;39.22;18.67;;;12.90;91.60;;;;;;5053094;28;20394;-80
2021/09/05 07:20:30;;;;;;;34.50;17.83;;;12.90;91.40;;;;;;5053098;28;20529;-80
2021/09/05 07:22:56;;;;;;;38.35;18.83;;;13.00;91.50;;;;;;5053038;28;20387;-80
2021/09/05 07:25:22;;;;;;;39.25;18.83;;;13.00;91.50;;;;;;5052900;28;20388;-80
2021/09/05 07:27:49;;;;;;;37.45;17.38;;;13.10;91.60;;;;;;5070668;28;20868;-80
2021/09/05 07:30:15;;;;;;;38.60;17.83;;;13.20;91.50;;;;;;5053049;28;20383;-80
2021/09/05 07:32:41;;;;;;;38.83;17.67;;;13.30;91.50;;;;;;5052928;28;20396;-80
2021/09/05 07:35:08;;;;;;;35.60;18.25;;;13.30;91.30;;;;;;5070909;28;20408;-80
2021/09/05 07:37:34;;;;;;;35.45;17.83;;;13.30;91.30;;;;;;5052788;28;20419;-80
2021/09/05 07:39:59;;;;;;;37.22;16.90;;;13.40;91.10;;;;;;5052775;28;20376;-80
2021/09/05 07:42:25;;;;;;;32.97;17.85;;;13.40;91.00;;;;;;5052924;28;20386;-80
2021/09/05 07:44:51;;;;;;;32.23;17.03;;;13.60;91.20;;;;;;5052784;28;20425;-80
2021/09/05 07:47:16;;;;;;;34.40;17.70;;;13.60;90.90;;;;;;5071137;28;20900;-80
2021/09/05 07:49:42;;;;;;;38.67;17.73;;;13.70;91.10;;;;;;5070819;28;20740;-80
2021/09/05 07:52:07;;;;;;;35.83;17.50;;;13.80;91.00;;;;;;5052483;28;20392;-80
2021/09/05 07:54:33;;;;;;;32.23;17.03;;;13.90;90.70;;;;;;5053014;28;20454;-79
2021/09/05 07:56:58;;;;;;;32.63;16.67;;;13.90;90.70;;;;;;5052351;28;20517;-79
2021/09/05 07:59:24;;;;;;;35.58;16.83;;;14.00;90.50;;;;;;5052846;28;20764;-80
2021/09/05 08:01:49;;;;;;;29.93;15.97;;;14.20;90.30;;;;;;5052391;28;20740;-80
2021/09/05 08:04:15;;;;;;;35.67;16.05;;;14.20;90.10;;;;;;5054719;28;20423;-80
2021/09/05 08:06:40;;;;;;;35.87;16.50;;;14.30;89.90;;;;;;5074276;28;20469;-80
2021/09/05 08:09:06;;;;;;;29.77;15.30;;;14.30;90.50;;;;;;5074201;28;20861;-80
2021/09/05 08:11:31;;;;;;;33.85;15.30;;;14.40;89.60;;;;;;5074252;28;20376;-80
2021/09/05 08:13:57;;;;;;;29.37;16.17;;;14.40;89.30;;;;;;5056585;28;20391;-80
2021/09/05 08:16:23;;;;;;;24.87;14.37;;;14.40;89.60;;;;;;5074116;28;20761;-80
2021/09/05 08:18:48;;;;;;;27.38;14.10;;;14.70;89.50;;;;;;5056175;28;20441;-80
2021/09/05 08:21:14;;;;;;;27.02;14.52;;;14.80;88.90;;;;;;5073807;28;20380;-79
2021/09/05 08:23:41;;;;;;;30.97;14.97;;;14.80;89.10;;;;;;5055990;28;20415;-79
2021/09/05 08:26:07;;;;;;;27.92;14.13;;;14.90;88.40;;;;;;5074048;28;20415;-80
2021/09/05 08:28:32;;;;;;;31.93;15.57;;;15.00;88.20;;;;;;5073992;28;20909;-80
2021/09/05 08:30:59;;;;;;;25.17;14.43;;;15.00;89.10;;;;;;5055917;28;20438;-80
2021/09/05 08:33:24;;;;;;;25.15;13.55;;;15.10;88.40;;;;;;5073871;28;20757;-80
2021/09/05 08:35:50;;;;;;;26.00;14.05;;;15.20;88.20;;;;;;5073680;28;20420;-79
2021/09/05 08:38:16;;;;;;;28.17;14.97;;;15.30;87.90;;;;;;5055695;28;20881;-80
2021/09/05 08:40:44;;;;;;;26.65;13.43;;;15.60;86.50;;;;;;5073866;28;20398;-79
2021/09/05 08:43:11;;;;;;;25.52;14.48;;;15.50;87.10;;;;;;5055636;28;20450;-80
2021/09/05 08:45:37;;;;;;;31.10;15.17;;;15.80;86.70;;;;;;5073452;28;20981;-79
2021/09/05 08:48:04;;;;;;;26.88;13.93;;;15.80;86.40;;;;;;5073293;28;20383;-79
2021/09/05 08:50:32;;;;;;;26.58;13.52;;;15.80;86.50;;;;;;5055441;28;20384;-79
2021/09/05 08:52:58;;;;;;;25.43;13.07;;;15.80;87.20;;;;;;5073413;28;20824;-80
2021/09/05 08:55:24;;;;;;;25.20;13.32;;;16.00;86.60;;;;;;5073173;28;20399;-80
2021/09/05 08:57:50;;;;;;;24.05;13.38;;;16.10;86.70;;;;;;5055049;28;20408;-79
2021/09/05 09:00:16;;;;;;;28.08;14.13;;;16.10;86.80;;;;;;5055298;28;20395;-80
2021/09/05 09:02:48;;;;;;;27.13;13.30;;;16.20;85.90;;;;;;5055548;28;20384;-80
2021/09/05 09:05:14;;;;;;;22.95;12.88;;;16.40;85.20;;;;;;5073221;28;20510;-79
2021/09/05 09:07:44;;;;;;;25.15;13.48;;;16.60;84.80;;;;;;5055312;28;20737;-82
2021/09/05 09:10:10;;;;;;;24.67;13.45;;;16.70;84.00;;;;;;5073186;28;20528;-80
2021/09/05 09:12:41;;;;;;;29.35;13.93;;;16.80;83.70;;;;;;5072982;28;20387;-80
2021/09/05 09:15:20;;;;;;;23.50;14.00;;;16.80;83.90;;;;;;5055018;28;20399;-80
2021/09/05 09:17:50;;;;;;;22.47;12.03;;;16.90;84.00;;;;;;5072740;28;20414;-80
2021/09/05 09:20:34;;;;;;;23.13;13.00;;;16.90;83.30;;;;;;5054962;28;20439;-79
2021/09/05 09:23:18;;;;;;;26.02;12.10;;;17.00;82.30;;;;;;5072839;28;20706;-79
2021/09/05 09:25:57;;;;;;;22.10;12.77;;;17.30;82.10;;;;;;5054938;28;20384;-78
2021/09/05 09:28:34;;;;;;;20.23;11.70;;;17.30;81.90;;;;;;5054962;28;20937;-77
2021/09/05 09:31:11;;;;;;;22.30;11.90;;;17.40;82.70;;;;;;5072716;28;20483;-77
2021/09/05 09:33:37;;;;;;;25.17;11.70;;;17.40;82.50;;;;;;5072707;28;20721;-77
2021/09/05 09:36:09;;;;;;;23.60;11.10;;;17.70;81.50;;;;;;5072242;28;20455;-78
2021/09/05 09:38:35;;;;;;;19.30;11.63;;;17.70;81.60;;;;;;5072615;28;20372;-77
2021/09/05 09:41:15;;;;;;;20.27;11.17;;;17.90;81.00;;;;;;5054791;28;20414;-77
2021/09/05 09:44:00;;;;;;;19.80;11.20;;;18.00;80.30;;;;;;5054483;28;20419;-78
2021/09/05 09:46:30;;;;;;;22.90;11.05;;;18.10;80.70;;;;;;5072400;28;20452;-77
2021/09/05 09:49:02;;;;;;;18.50;10.23;;;18.20;80.50;;;;;;5054352;28;20912;-77
2021/09/05 09:51:28;;;;;;;18.90;9.87;;;18.30;78.40;;;;;;5072114;28;20525;-77
2021/09/05 09:53:55;;;;;;;16.30;10.10;;;18.30;77.50;;;;;;5072159;28;20383;-78
2021/09/05 09:56:21;;;;;;;16.45;9.77;;;18.30;78.60;;;;;;5072174;28;20419;-78
2021/09/05 09:58:55;;;;;;;16.75;9.40;;;18.50;78.70;;;;;;5072140;28;20832;-77
2021/09/05 10:01:26;;;;;;;15.48;9.55;;;18.50;76.50;;;;;;5071903;28;20861;-78
2021/09/05 10:03:54;;;;;;;18.50;10.35;;;18.70;76.60;;;;;;5054156;28;21058;-78
2021/09/05 10:06:23;;;;;;;18.57;11.07;;;18.80;77.20;;;;;;5069904;28;20864;-77
2021/09/05 10:08:53;;;;;;;18.20;9.80;;;18.90;76.80;;;;;;5052865;28;20392;-77
2021/09/05 10:11:20;;;;;;;16.90;9.68;;;18.90;75.20;;;;;;5071114;28;20380;-77
2021/09/05 10:13:47;;;;;;;16.08;9.52;;;19.10;74.20;;;;;;5070907;28;20425;-76
2021/09/05 10:16:13;;;;;;;15.65;9.57;;;19.10;74.60;;;;;;5052733;28;20418;-76
2021/09/05 10:18:48;;;;;;;18.45;9.68;;;18.90;74.90;;;;;;5069956;28;20384;-77
2021/09/05 10:21:16;;;;;;;19.27;10.88;;;19.10;75.70;;;;;;5068730;28;20376;-76
2021/09/05 10:23:48;;;;;;;18.52;9.82;;;19.30;75.40;;;;;;5051814;28;20406;-76
2021/09/05 10:26:15;;;;;;;17.30;9.52;;;19.30;75.60;;;;;;5070019;28;20384;-76
2021/09/05 10:28:48;;;;;;;18.48;9.68;;;19.40;75.40;;;;;;5069732;28;20387;-75
2021/09/05 10:31:21;;;;;;;21.55;9.60;;;19.40;77.20;;;;;;5067375;28;20411;-77
2021/09/05 10:33:47;;;;;;;16.92;9.20;;;19.70;75.40;;;;;;5071598;28;20453;-76
2021/09/05 10:36:15;;;;;;;17.03;9.77;;;19.80;74.90;;;;;;5053537;28;20411;-74
2021/09/05 10:38:42;;;;;;;17.25;9.43;;;19.70;75.50;;;;;;5053507;28;20410;-75
2021/09/05 10:41:28;;;;;;;19.02;9.45;;;19.80;76.50;;;;;;5053426;28;20509;-77
2021/09/05 10:44:04;;;;;;;17.42;9.45;;;20.00;75.00;;;;;;5052370;28;20413;-76
2021/09/05 10:46:51;;;;;;;15.45;9.35;;;19.90;73.50;;;;;;5071393;28;20475;-76
2021/09/05 10:49:35;;;;;;;15.82;9.05;;;20.00;73.40;;;;;;5071465;28;20733;-77
2021/09/05 10:52:01;;;;;;;14.52;9.00;;;20.10;72.80;;;;;;5071090;28;20415;-78
2021/09/05 10:54:28;;;;;;;16.20;9.67;;;20.30;72.50;;;;;;5071030;28;20416;-77
2021/09/05 10:56:59;;;;;;;19.63;9.70;;;20.30;72.10;;;;;;5053131;28;20419;-77
2021/09/05 10:59:25;;;;;;;20.35;9.30;;;20.30;74.20;;;;;;5053264;28;20387;-76
2021/09/05 11:01:51;;;;;;;16.15;9.38;;;20.30;73.60;;;;;;5070511;28;20376;-76
2021/09/05 11:04:18;;;;;;;19.10;9.20;;;20.60;73.00;;;;;;5086621;28;20426;-76
2021/09/05 11:07:13;;;;;;;14.55;9.32;;;20.60;72.40;;;;;;5069942;28;20706;-76
2021/09/05 11:09:44;;;;;;;14.88;9.13;;;20.60;72.50;;;;;;5035336;28;20399;-76
2021/09/05 11:12:11;;;;;;;17.52;10.10;;;20.80;72.90;;;;;;5053105;28;20383;-76
2021/09/05 11:14:49;;;;;;;16.75;10.10;;;20.90;72.20;;;;;;5070846;28;20477;-76
2021/09/05 11:17:26;;;;;;;19.33;11.07;;;20.90;73.90;;;;;;5051292;28;20499;-75
2021/09/05 11:19:54;;;;;;;18.38;9.82;;;20.90;70.90;;;;;;5071055;28;20375;-76
2021/09/05 11:22:21;;;;;;;17.42;9.80;;;20.80;70.90;;;;;;5052754;28;20384;-75
2021/09/05 11:25:03;;;;;;;17.30;9.60;;;20.90;71.70;;;;;;5052701;28;20400;-76
2021/09/05 11:27:28;;;;;;;18.15;9.93;;;21.10;71.90;;;;;;5070518;28;20388;-76
2021/09/05 11:29:59;;;;;;;16.90;9.63;;;21.20;70.30;;;;;;5070724;28;20399;-76
2021/09/05 11:32:25;;;;;;;19.30;10.02;;;21.30;71.30;;;;;;5070822;28;20375;-75
2021/09/05 11:34:55;;;;;;;16.88;10.07;;;21.30;68.50;;;;;;5070898;28;20388;-76
2021/09/05 11:37:30;;;;;;;16.33;10.02;;;21.30;67.80;;;;;;5052786;28;20416;-76
2021/09/05 11:39:56;;;;;;;17.98;10.00;;;21.10;69.40;;;;;;5056069;28;20414;-76
2021/09/05 11:42:22;;;;;;;16.08;10.60;;;21.10;69.40;;;;;;5074749;28;20728;-76
2021/09/05 11:44:48;;;;;;;15.23;9.45;;;21.20;68.70;;;;;;5074496;28;20372;-76
2021/09/05 11:47:17;;;;;;;15.88;9.85;;;21.30;71.40;;;;;;5074706;28;20386;-76
2021/09/05 11:49:47;;;;;;;18.33;9.63;;;21.40;70.60;;;;;;5074599;28;20391;-76
2021/09/05 11:52:18;;;;;;;17.58;9.82;;;21.50;68.20;;;;;;5074536;28;20372;-77
2021/09/05 11:54:57;;;;;;;23.35;10.63;;;21.60;69.80;;;;;;5074633;28;20383;-76
2021/09/05 11:57:23;;;;;;;19.35;10.25;;;21.60;69.70;;;;;;5074658;28;20425;-77
2021/09/05 11:59:52;;;;;;;18.45;10.13;;;21.60;68.30;;;;;;5074404;28;20425;-79
2021/09/05 12:02:26;;;;;;;17.77;9.47;;;21.50;67.50;;;;;;5074367;28;20384;-82
2021/09/05 12:04:52;;;;;;;17.15;9.48;;;21.50;69.50;;;;;;5056059;28;20420;-84
2021/09/05 12:07:18;;;;;;;16.13;10.20;;;21.80;71.70;;;;;;5074390;28;20418;-84
2021/09/05 12:09:43;;;;;;;15.55;9.70;;;21.90;69.30;;;;;;5056582;28;20394;-84
2021/09/05 12:12:09;;;;;;;28.93;11.23;;;21.90;67.20;;;;;;5074313;28;20760;-83
2021/09/05 12:14:36;;;;;;;15.10;9.00;;;21.90;68.10;;;;;;5073969;28;20801;-85
2021/09/05 12:17:22;;;;;;;17.77;10.13;;;21.80;67.60;;;;;;5056184;28;20441;-83
2021/09/05 12:20:03;;;;;;;15.40;8.93;;;22.00;66.10;;;;;;5073666;28;20456;-84
2021/09/05 12:22:48;;;;;;;15.07;9.07;;;22.00;67.90;;;;;;5074220;28;20467;-84
2021/09/05 12:25:25;;;;;;;17.77;8.80;;;22.00;65.90;;;;;;5055836;28;20445;-83
2021/09/05 12:27:58;;;;;;;16.35;9.50;;;22.00;65.00;;;;;;5074085;28;20388;-86
2021/09/05 12:30:31;;;;;;;16.70;9.38;;;22.00;65.70;;;;;;5073707;28;20422;-84